Time;durP1;ratioP1;P1;durP2;ratioP2;P2;SDS_P1;SDS_P2;PMS_P1;PMS_P2;Temp;Humidity;BMP_temperature;BMP_pressure;BME280_temperature;BME280_humidity;BME280_pressure;Samples;Min_cycle;Max_cycle;Signal;HPM_P1;HPM_P2
2023/12/03 00:02:18;;;;;;;14.88;8.30;;;;;;;8.57;75.29;98625.72;5012846;28;20045;-78
2023/12/03 00:05:05;;;;;;;14.27;8.07;;;;;;;8.58;75.00;98632.63;5005898;28;20049;-77
2023/12/03 00:07:51;;;;;;;13.48;7.30;;;;;;;8.35;74.79;98620.97;5005617;28;20061;-78
2023/12/03 00:10:38;;;;;;;13.32;7.68;;;;;;;8.18;74.93;98622.69;5012873;28;20049;-79
2023/12/03 00:13:23;;;;;;;14.63;8.75;;;;;;;8.05;75.08;98633.47;5009435;28;20056;-76
2023/12/03 00:16:10;;;;;;;13.48;8.43;;;;;;;8.03;74.85;98651.44;4995825;28;20057;-79
2023/12/03 00:18:56;;;;;;;10.75;7.10;;;;;;;7.48;75.52;98659.50;5016484;28;20502;-77
2023/12/03 00:21:42;;;;;;;11.57;8.35;;;;;;;7.48;75.25;98670.09;5016401;28;20045;-80
2023/12/03 00:24:29;;;;;;;17.75;8.80;;;;;;;7.55;75.10;98684.03;5009818;28;20514;-78
2023/12/03 00:27:14;;;;;;;17.20;9.18;;;;;;;7.68;75.17;98705.03;5016448;28;20049;-77
2023/12/03 00:30:00;;;;;;;13.95;8.27;;;;;;;7.59;75.21;98693.16;5002580;28;20053;-80
2023/12/03 00:32:45;;;;;;;15.90;9.63;;;;;;;7.62;75.14;98704.09;5022560;28;20053;-79
2023/12/03 00:35:30;;;;;;;14.45;8.93;;;;;;;7.54;74.60;98725.53;5002757;28;20060;-77
2023/12/03 00:38:16;;;;;;;11.68;8.25;;;;;;;7.20;74.54;98716.38;5016093;28;20065;-78
2023/12/03 00:41:01;;;;;;;17.50;9.25;;;;;;;7.37;75.01;98725.34;5009267;28;20053;-77
2023/12/03 00:43:47;;;;;;;14.57;8.95;;;;;;;7.30;74.29;98729.91;5008892;28;20396;-81
2023/12/03 00:46:33;;;;;;;12.60;8.73;;;;;;;7.12;73.84;98735.97;5008056;28;20057;-81
2023/12/03 00:49:18;;;;;;;16.10;9.90;;;;;;;7.09;73.76;98746.19;5016388;28;20045;-85
2023/12/03 00:52:08;;;;;;;14.98;9.80;;;;;;;7.06;72.98;98754.53;5016044;28;20056;-86
2023/12/03 00:54:55;;;;;;;11.55;7.63;;;;;;;6.90;71.79;98756.72;5023447;28;20057;-86
2023/12/03 00:57:44;;;;;;;12.13;8.32;;;;;;;6.79;71.10;98761.88;5017098;28;20054;-86
2023/12/03 01:00:31;;;;;;;11.75;7.47;;;;;;;6.57;71.83;98767.53;5023390;28;20053;-83
2023/12/03 01:03:16;;;;;;;14.90;9.00;;;;;;;6.65;71.36;98779.69;5030456;28;20392;-81
2023/12/03 01:06:02;;;;;;;8.02;5.15;;;;;;;6.55;70.34;98784.59;5017008;28;20053;-81
2023/12/03 01:08:47;;;;;;;14.23;7.97;;;;;;;6.46;70.18;98806.00;5016510;28;20057;-81
2023/12/03 01:11:33;;;;;;;13.90;8.15;;;;;;;6.31;70.58;98807.31;5016293;28;20109;-85
2023/12/03 01:14:19;;;;;;;11.27;8.48;;;;;;;6.34;71.15;98810.34;5016734;28;20044;-81
2023/12/03 01:17:04;;;;;;;12.63;8.73;;;;;;;6.30;70.67;98832.06;5016316;28;20049;-81
2023/12/03 01:19:50;;;;;;;11.77;7.05;;;;;;;6.20;70.71;98833.34;5029381;28;20049;-81
2023/12/03 01:22:35;;;;;;;12.30;8.65;;;;;;;6.11;70.74;98845.19;5016150;28;20041;-83
2023/12/03 01:25:21;;;;;;;11.27;8.25;;;;;;;6.00;71.56;98838.72;5015220;28;20065;-81
2023/12/03 01:28:06;;;;;;;12.98;9.20;;;;;;;5.96;71.86;98858.63;5021762;28;20053;-80
2023/12/03 01:30:52;;;;;;;13.05;9.35;;;;;;;5.92;72.21;98867.94;5016246;28;20395;-86
2023/12/03 01:33:38;;;;;;;15.75;10.57;;;;;;;5.81;73.18;98873.84;5015302;28;20065;-83
2023/12/03 01:36:24;;;;;;;14.52;9.07;;;;;;;5.66;72.98;98871.44;5016321;28;20057;-86
2023/12/03 01:39:10;;;;;;;16.60;10.88;;;;;;;5.69;74.02;98884.22;5016033;28;20045;-80
2023/12/03 01:41:55;;;;;;;17.85;11.43;;;;;;;5.45;74.54;98867.25;5016035;28;20048;-84
2023/12/03 01:44:41;;;;;;;12.82;8.18;;;;;;;5.39;74.56;98872.50;5017036;28;20068;-86
2023/12/03 01:47:28;;;;;;;18.20;12.00;;;;;;;5.54;74.68;98899.44;5014902;28;20056;-84
2023/12/03 01:50:14;;;;;;;15.15;10.25;;;;;;;5.40;74.92;98911.84;5014788;28;20056;-80
2023/12/03 01:52:59;;;;;;;13.85;9.48;;;;;;;5.24;75.06;98902.50;5000932;28;20057;-81
2023/12/03 01:55:46;;;;;;;16.02;10.68;;;;;;;5.13;75.67;98907.56;5019732;28;20053;-80
2023/12/03 01:58:32;;;;;;;19.02;13.18;;;;;;;5.15;75.74;98913.47;5014931;28;20060;-80
2023/12/03 02:01:17;;;;;;;17.13;10.70;;;;;;;5.13;75.48;98921.56;5014877;28;20056;-79
2023/12/03 02:04:03;;;;;;;14.80;9.82;;;;;;;4.88;75.41;98926.59;5028256;28;20553;-84
2023/12/03 02:06:49;;;;;;;10.88;8.05;;;;;;;4.92;74.68;98940.16;5015372;28;20049;-80
2023/12/03 02:09:35;;;;;;;12.40;8.63;;;;;;;4.86;73.99;98936.53;5015356;28;20395;-79
2023/12/03 02:12:22;;;;;;;13.55;8.50;;;;;;;4.76;73.38;98957.94;5007424;28;20049;-84
2023/12/03 02:15:08;;;;;;;16.48;10.32;;;;;;;4.64;73.01;98947.19;5021390;28;20053;-83
2023/12/03 02:17:53;;;;;;;15.20;8.95;;;;;;;4.67;73.08;98953.06;5000980;28;20053;-80
2023/12/03 02:20:39;;;;;;;18.20;9.65;;;;;;;4.57;73.29;98966.59;5017503;28;20069;-84
2023/12/03 02:23:27;;;;;;;18.38;10.90;;;;;;;4.67;73.02;98974.13;5014441;28;20049;-85
2023/12/03 02:26:13;;;;;;;18.73;12.40;;;;;;;4.60;73.40;98974.91;5014544;28;20053;-85
2023/12/03 02:28:58;;;;;;;12.52;9.05;;;;;;;4.56;73.50;98984.22;5020771;28;20045;-84
2023/12/03 02:31:43;;;;;;;14.82;10.60;;;;;;;4.59;73.68;98994.34;5028135;28;20057;-80
2023/12/03 02:34:31;;;;;;;16.40;10.85;;;;;;;4.61;73.92;99004.69;5014004;28;20052;-81
2023/12/03 02:37:16;;;;;;;15.57;10.00;;;;;;;4.51;73.78;99006.84;5014105;28;20056;-80
2023/12/03 02:40:06;;;;;;;14.73;9.23;;;;;;;4.48;73.90;99009.88;5028069;28;20048;-80
2023/12/03 02:42:52;;;;;;;16.23;10.73;;;;;;;4.50;73.65;99027.09;5014042;28;20057;-81
2023/12/03 02:45:38;;;;;;;9.77;5.93;;;;;;;4.38;74.04;99039.97;5013935;28;20072;-85
2023/12/03 02:48:23;;;;;;;14.15;8.75;;;;;;;4.25;74.34;99034.66;5015280;28;20478;-80
2023/12/03 02:51:10;;;;;;;18.30;13.15;;;;;;;4.42;74.49;99050.97;5013794;28;20052;-84
2023/12/03 02:53:55;;;;;;;16.50;10.40;;;;;;;4.41;73.13;99059.84;5013782;28;20061;-79
2023/12/03 02:56:42;;;;;;;13.40;8.55;;;;;;;4.18;73.64;99054.84;5016651;28;20059;-78
2023/12/03 02:59:28;;;;;;;16.92;11.07;;;;;;;4.18;74.26;99052.22;5014987;28;20057;-80
2023/12/03 03:02:13;;;;;;;59.22;33.45;;;;;;;4.20;73.00;99068.63;5014626;28;20057;-83
2023/12/03 03:04:59;;;;;;;266.05;160.50;;;;;;;3.99;73.64;99063.41;5014738;28;20053;-80
2023/12/03 03:07:44;;;;;;;80.55;40.38;;;;;;;4.05;72.81;99071.34;5013602;28;20045;-79
2023/12/03 03:10:30;;;;;;;293.40;196.48;;;;;;;4.04;72.55;99082.88;5014399;28;20521;-82
2023/12/03 03:13:15;;;;;;;20.77;11.85;;;;;;;3.89;71.89;99104.00;5013201;28;20042;-82
2023/12/03 03:16:02;;;;;;;99.38;58.38;;;;;;;3.97;72.12;99121.44;5013205;28;20052;-82
2023/12/03 03:18:47;;;;;;;80.45;56.63;;;;;;;4.10;71.94;99115.47;5014430;28;20053;-84
2023/12/03 03:21:38;;;;;;;90.68;65.40;;;;;;;3.91;72.02;99132.72;5013315;28;20052;-84
2023/12/03 03:24:24;;;;;;;30.42;21.10;;;;;;;3.77;72.42;99129.16;5013376;28;20506;-81
2023/12/03 03:27:09;;;;;;;18.65;10.98;;;;;;;3.83;72.59;99151.25;5014268;28;20048;-82
2023/12/03 03:29:55;;;;;;;11.77;7.43;;;;;;;3.64;72.06;99145.63;5013319;28;20053;-84
2023/12/03 03:32:40;;;;;;;14.73;8.98;;;;;;;3.54;73.08;99155.63;5014116;28;20064;-84
2023/12/03 03:35:25;;;;;;;11.70;7.40;;;;;;;3.43;73.91;99164.78;5012920;28;20052;-83
2023/12/03 03:38:10;;;;;;;11.57;7.47;;;;;;;3.33;73.85;99172.16;5013672;28;20060;-84
2023/12/03 03:40:55;;;;;;;12.38;7.80;;;;;;;3.18;73.84;99166.91;5013812;28;20057;-84
2023/12/03 03:43:41;;;;;;;19.17;10.60;;;;;;;3.20;74.27;99177.25;5013906;28;20049;-84
2023/12/03 03:46:26;;;;;;;12.05;8.60;;;;;;;3.07;74.79;99183.16;5013010;28;20053;-82
2023/12/03 03:49:12;;;;;;;20.90;13.98;;;;;;;3.18;75.14;99187.91;5013789;28;20049;-81
2023/12/03 03:51:58;;;;;;;18.42;12.15;;;;;;;3.19;76.03;99186.09;5013814;28;20514;-81
2023/12/03 03:54:43;;;;;;;19.23;11.77;;;;;;;3.14;74.93;99194.53;5013688;28;20395;-82
2023/12/03 03:57:29;;;;;;;13.40;8.73;;;;;;;3.09;75.19;99199.50;5013272;28;20073;-84
2023/12/03 04:00:14;;;;;;;12.77;7.63;;;;;;;3.12;75.19;99207.03;5013889;28;20152;-84
2023/12/03 04:03:00;;;;;;;20.15;10.95;;;;;;;3.13;74.92;99213.91;5012654;28;20045;-82
2023/12/03 04:05:45;;;;;;;12.98;8.65;;;;;;;3.10;74.58;99218.72;5013795;28;20392;-81
2023/12/03 04:08:32;;;;;;;12.65;8.18;;;;;;;2.88;74.64;99215.97;5013892;28;20044;-84
2023/12/03 04:11:19;;;;;;;16.30;11.75;;;;;;;3.03;74.21;99234.38;5005662;28;20053;-80
2023/12/03 04:14:07;;;;;;;16.05;10.75;;;;;;;3.07;75.42;99240.91;5005752;28;20045;-81
2023/12/03 04:16:52;;;;;;;14.27;8.68;;;;;;;3.03;75.38;99236.19;5012790;28;20048;-81
2023/12/03 04:19:37;;;;;;;23.75;12.15;;;;;;;3.00;74.30;99242.59;5026469;28;20053;-81
2023/12/03 04:22:25;;;;;;;12.80;7.95;;;;;;;3.04;74.14;99246.53;5020570;28;20073;-84
2023/12/03 04:25:10;;;;;;;14.45;9.73;;;;;;;2.97;73.42;99256.91;5013526;28;20531;-82
2023/12/03 04:27:55;;;;;;;17.15;11.70;;;;;;;2.97;75.03;99261.34;5013418;28;20053;-81
2023/12/03 04:30:40;;;;;;;17.58;12.90;;;;;;;2.88;75.34;99273.72;5013149;28;20053;-81
2023/12/03 04:33:25;;;;;;;18.70;12.10;;;;;;;2.84;75.63;99287.41;5013310;28;20057;-81
2023/12/03 04:36:12;;;;;;;19.23;12.32;;;;;;;2.89;75.02;99293.75;5026442;28;20057;-81
2023/12/03 04:38:58;;;;;;;17.45;9.32;;;;;;;2.84;75.03;99311.03;5013455;28;20049;-83
2023/12/03 04:41:43;;;;;;;13.05;8.63;;;;;;;2.75;75.00;99316.34;5013731;28;20380;-82
2023/12/03 04:44:31;;;;;;;17.17;11.00;;;;;;;2.80;74.21;99323.69;5013665;28;20049;-83
2023/12/03 04:47:16;;;;;;;10.75;7.03;;;;;;;2.78;73.86;99315.97;5012358;28;20400;-84
2023/12/03 04:50:03;;;;;;;10.68;6.55;;;;;;;2.81;73.89;99324.50;5026197;28;20073;-82
2023/12/03 04:52:48;;;;;;;16.13;9.98;;;;;;;2.74;74.39;99322.59;5018739;28;20053;-84
2023/12/03 04:55:34;;;;;;;15.57;10.10;;;;;;;2.76;74.79;99332.91;5013016;28;20343;-83
2023/12/03 04:58:19;;;;;;;10.70;7.70;;;;;;;2.55;75.43;99337.00;5014642;28;20044;-84
2023/12/03 05:01:07;;;;;;;13.65;7.82;;;;;;;2.51;75.88;99340.97;5036145;28;20049;-83
2023/12/03 05:03:52;;;;;;;10.82;7.15;;;;;;;2.52;74.71;99344.41;5023108;28;20049;-82
2023/12/03 05:06:37;;;;;;;11.07;7.97;;;;;;;2.54;75.30;99342.44;5016699;28;20399;-83
2023/12/03 05:09:23;;;;;;;10.45;6.93;;;;;;;2.55;75.27;99363.22;5016458;28;20105;-84
2023/12/03 05:12:08;;;;;;;15.73;10.98;;;;;;;2.66;74.40;99354.13;5015753;28;20053;-82
2023/12/03 05:14:54;;;;;;;10.75;6.75;;;;;;;2.66;73.73;99354.13;5022016;28;20052;-82
2023/12/03 05:17:40;;;;;;;12.13;7.63;;;;;;;2.75;73.48;99374.06;5015745;28;20160;-82
2023/12/03 05:20:25;;;;;;;10.75;7.15;;;;;;;2.72;72.54;99384.91;5017322;28;20049;-84
2023/12/03 05:23:12;;;;;;;12.80;8.55;;;;;;;2.61;73.31;99382.72;5015568;28;20056;-82
2023/12/03 05:25:58;;;;;;;10.38;6.53;;;;;;;2.72;73.03;99391.97;5016146;28;20061;-84
2023/12/03 05:28:43;;;;;;;14.73;9.23;;;;;;;2.78;72.92;99410.47;5016347;28;20048;-83
2023/12/03 05:31:29;;;;;;;11.45;7.05;;;;;;;2.70;73.47;99410.53;5016074;28;20045;-83
2023/12/03 05:34:15;;;;;;;13.57;8.45;;;;;;;2.73;72.47;99418.06;5028955;28;20049;-84
2023/12/03 05:37:00;;;;;;;15.90;8.43;;;;;;;2.73;72.01;99412.81;5016067;28;20064;-83
2023/12/03 05:39:46;;;;;;;10.45;7.72;;;;;;;2.72;70.53;99413.78;5021901;28;20053;-84
2023/12/03 05:42:31;;;;;;;9.70;5.88;;;;;;;2.64;70.28;99405.97;5021604;28;20049;-84
2023/12/03 05:45:17;;;;;;;11.55;7.20;;;;;;;2.71;69.56;99417.41;5023066;28;20048;-84
2023/12/03 05:48:04;;;;;;;11.15;6.57;;;;;;;2.68;68.87;99423.00;5023615;28;20053;-83
2023/12/03 05:50:49;;;;;;;12.18;7.30;;;;;;;2.77;69.11;99435.09;5023871;28;20053;-83
2023/12/03 05:53:34;;;;;;;11.05;7.20;;;;;;;2.74;68.31;99429.38;5023968;28;20053;-83
2023/12/03 05:56:22;;;;;;;10.85;6.28;;;;;;;2.69;68.02;99440.38;5023596;28;20053;-84
2023/12/03 05:59:08;;;;;;;6.90;5.43;;;;;;;2.72;67.15;99447.91;5024195;28;20045;-84
2023/12/03 06:01:57;;;;;;;6.68;4.53;;;;;;;2.67;67.53;99466.00;5024624;28;20048;-83
2023/12/03 06:04:46;;;;;;;5.78;4.32;;;;;;;2.70;68.04;99473.53;5020846;28;20049;-85
2023/12/03 06:07:33;;;;;;;8.52;5.15;;;;;;;2.65;67.31;99457.47;5015485;28;20053;-84
2023/12/03 06:10:19;;;;;;;10.50;5.18;;;;;;;2.60;66.60;99464.22;5013406;28;20069;-85
2023/12/03 06:13:04;;;;;;;6.68;4.28;;;;;;;2.63;66.75;99477.81;5020595;28;20404;-85
2023/12/03 06:15:50;;;;;;;10.93;6.85;;;;;;;2.67;67.27;99488.78;5007233;28;20049;-83
2023/12/03 06:18:36;;;;;;;12.32;8.30;;;;;;;2.65;66.30;99482.91;5014029;28;20057;-85
2023/12/03 06:21:22;;;;;;;13.88;9.10;;;;;;;2.68;66.73;99493.84;5034622;28;20057;-84
2023/12/03 06:24:08;;;;;;;10.77;6.75;;;;;;;2.64;65.97;99489.13;5028313;28;20434;-85
2023/12/03 06:26:54;;;;;;;7.30;4.05;;;;;;;2.68;65.52;99508.78;5007055;28;20053;-84
2023/12/03 06:29:39;;;;;;;8.30;4.95;;;;;;;2.59;66.04;99508.00;5014535;28;20057;-84
2023/12/03 06:32:25;;;;;;;10.48;5.68;;;;;;;2.60;65.25;99512.28;5034675;28;20040;-85
2023/12/03 06:35:14;;;;;;;5.70;4.25;;;;;;;2.70;66.48;99519.94;5015037;28;20072;-84
2023/12/03 06:37:59;;;;;;;9.98;6.38;;;;;;;2.65;66.01;99530.94;5015477;28;20049;-82
2023/12/03 06:40:44;;;;;;;11.38;6.05;;;;;;;2.63;66.26;99532.09;5027347;28;20060;-83
2023/12/03 06:43:30;;;;;;;8.27;5.50;;;;;;;2.74;66.29;99535.16;5014003;28;20506;-83
2023/12/03 06:46:16;;;;;;;9.73;6.40;;;;;;;2.73;65.73;99548.47;5015850;28;20045;-86
2023/12/03 06:49:01;;;;;;;9.48;4.28;;;;;;;2.72;66.41;99560.75;5028135;28;20053;-85
2023/12/03 06:51:47;;;;;;;8.75;4.57;;;;;;;2.66;65.83;99566.69;5013620;28;20507;-84
2023/12/03 06:54:35;;;;;;;7.63;4.90;;;;;;;2.67;66.17;99559.66;5019236;28;20057;-83
2023/12/03 06:57:21;;;;;;;20.05;13.30;;;;;;;2.73;66.00;99565.03;5014195;28;20061;-84
2023/12/03 07:00:08;;;;;;;7.97;5.45;;;;;;;2.78;65.61;99573.19;5020005;28;20053;-84
2023/12/03 07:02:53;;;;;;;11.60;7.25;;;;;;;2.82;65.73;99589.44;5013753;28;20103;-85
2023/12/03 07:05:41;;;;;;;10.48;6.68;;;;;;;2.83;65.61;99590.25;5018556;28;20040;-85
2023/12/03 07:08:28;;;;;;;7.47;4.40;;;;;;;2.73;65.76;99591.28;5006442;28;20049;-83
2023/12/03 07:11:13;;;;;;;11.93;7.72;;;;;;;2.73;65.33;99611.47;5013883;28;20121;-81
2023/12/03 07:13:58;;;;;;;6.40;4.30;;;;;;;2.66;65.07;99606.03;5013054;28;20048;-82
2023/12/03 07:16:44;;;;;;;16.50;7.75;;;;;;;2.73;65.41;99607.03;5014728;28;20061;-85
2023/12/03 07:19:29;;;;;;;4.95;3.50;;;;;;;2.61;64.71;99618.88;5014643;28;20069;-85
2023/12/03 07:22:15;;;;;;;12.13;5.88;;;;;;;2.68;65.36;99622.44;5013496;28;20040;-82
2023/12/03 07:25:02;;;;;;;5.85;3.95;;;;;;;2.57;66.17;99628.06;5013602;28;20049;-82
2023/12/03 07:27:48;;;;;;;5.80;3.85;;;;;;;2.51;65.58;99624.31;5012876;28;20052;-80
2023/12/03 07:30:34;;;;;;;6.75;3.95;;;;;;;2.54;66.69;99650.22;5014358;28;20056;-81
2023/12/03 07:33:20;;;;;;;11.90;6.15;;;;;;;2.46;67.06;99652.03;5019594;28;20113;-81
2023/12/03 07:36:07;;;;;;;9.93;6.07;;;;;;;2.48;66.58;99660.56;5011939;28;20069;-81
2023/12/03 07:38:53;;;;;;;7.30;4.85;;;;;;;2.54;67.81;99680.88;5013279;28;20052;-82
2023/12/03 07:41:38;;;;;;;7.45;4.50;;;;;;;2.51;67.41;99675.97;5013854;28;20064;-81
2023/12/03 07:44:24;;;;;;;7.13;4.80;;;;;;;2.46;67.38;99679.06;5013933;28;20061;-82
2023/12/03 07:47:10;;;;;;;10.32;6.25;;;;;;;2.52;68.69;99680.22;5014162;28;20053;-82
2023/12/03 07:49:55;;;;;;;12.30;8.23;;;;;;;2.45;70.14;99689.75;5014098;28;20052;-82
2023/12/03 07:52:41;;;;;;;11.93;8.15;;;;;;;2.41;70.56;99691.88;5014490;28;20057;-82
2023/12/03 07:55:28;;;;;;;11.25;7.03;;;;;;;2.42;71.41;99709.25;5012769;28;20045;-81
2023/12/03 07:58:14;;;;;;;8.55;6.13;;;;;;;2.40;70.91;99716.47;5014018;28;20065;-81
2023/12/03 08:01:00;;;;;;;8.55;6.07;;;;;;;2.43;71.74;99710.06;5013082;28;20417;-81
2023/12/03 08:03:45;;;;;;;10.55;6.22;;;;;;;2.47;70.43;99714.00;4999694;28;20132;-81
2023/12/03 08:06:31;;;;;;;7.22;5.03;;;;;;;2.29;71.25;99720.25;5012702;28;20057;-82
2023/12/03 08:09:16;;;;;;;11.10;7.20;;;;;;;2.28;71.14;99718.59;5005687;28;20493;-81
2023/12/03 08:12:02;;;;;;;17.05;9.20;;;;;;;2.39;71.09;99719.28;5005680;28;20064;-81
2023/12/03 08:14:47;;;;;;;24.35;13.88;;;;;;;2.37;70.71;99723.84;5014005;28;20494;-81
2023/12/03 08:17:33;;;;;;;61.42;26.25;;;;;;;2.23;72.26;99734.00;5013809;28;20416;-80
2023/12/03 08:20:19;;;;;;;11.65;6.32;;;;;;;2.23;72.27;99741.88;5013568;28;20065;-82
2023/12/03 08:23:04;;;;;;;9.18;5.75;;;;;;;1.90;73.15;99741.00;5013638;28;20053;-80
2023/12/03 08:25:50;;;;;;;14.05;8.07;;;;;;;1.85;74.35;99751.19;5013550;28;20045;-82
2023/12/03 08:28:35;;;;;;;19.63;12.18;;;;;;;1.84;75.94;99754.75;5012999;28;20048;-83
2023/12/03 08:31:23;;;;;;;6.32;4.53;;;;;;;1.78;75.63;99758.84;4999186;28;20049;-82
2023/12/03 08:34:08;;;;;;;11.38;7.60;;;;;;;1.89;75.97;99759.53;5017038;28;20399;-82
2023/12/03 08:36:54;;;;;;;13.93;8.80;;;;;;;1.87;76.19;99761.47;5002838;28;20057;-84
2023/12/03 08:39:40;;;;;;;12.05;7.32;;;;;;;1.90;75.44;99763.78;5009836;28;20510;-81
2023/12/03 08:42:25;;;;;;;11.38;7.80;;;;;;;1.93;73.57;99760.84;5009095;28;20056;-81
2023/12/03 08:45:10;;;;;;;8.27;5.85;;;;;;;1.78;72.04;99764.06;5008785;28;20040;-83
2023/12/03 08:47:56;;;;;;;8.73;5.32;;;;;;;1.80;71.39;99775.22;5016770;28;20061;-83
2023/12/03 08:50:41;;;;;;;7.07;5.18;;;;;;;1.86;71.67;99789.50;5017007;28;20052;-81
2023/12/03 08:53:28;;;;;;;5.40;4.07;;;;;;;1.87;70.88;99792.94;5016716;28;20053;-84
2023/12/03 08:56:15;;;;;;;6.13;4.82;;;;;;;1.93;69.39;99787.88;5001788;28;20049;-81
2023/12/03 08:59:03;;;;;;;5.45;4.30;;;;;;;1.98;69.87;99780.34;5029572;28;20403;-80
2023/12/03 09:01:48;;;;;;;6.55;4.57;;;;;;;1.98;69.23;99788.22;5015550;28;20045;-80
2023/12/03 09:04:36;;;;;;;11.90;7.43;;;;;;;2.19;71.93;99793.00;5015382;28;20057;-82
2023/12/03 09:07:24;;;;;;;10.68;6.93;;;;;;;2.16;73.17;99795.94;5022130;28;20053;-85
2023/12/03 09:10:09;;;;;;;13.10;8.70;;;;;;;2.29;73.48;99801.56;5016889;28;20387;-80
2023/12/03 09:12:54;;;;;;;10.35;6.82;;;;;;;2.33;73.34;99804.69;5022112;28;20057;-83
2023/12/03 09:15:41;;;;;;;12.10;7.78;;;;;;;2.34;73.49;99808.13;5008206;28;20045;-80
2023/12/03 09:18:27;;;;;;;14.35;9.07;;;;;;;2.35;72.77;99807.13;5016819;28;20049;-82
2023/12/03 09:21:13;;;;;;;13.27;8.45;;;;;;;2.43;72.55;99805.34;5011567;28;20053;-82
2023/12/03 09:23:59;;;;;;;8.90;6.25;;;;;;;2.18;73.36;99807.09;5034741;28;20052;-83
2023/12/03 09:26:45;;;;;;;12.55;7.38;;;;;;;2.26;73.84;99814.19;5025203;28;20121;-83
2023/12/03 09:29:30;;;;;;;12.82;8.27;;;;;;;2.08;74.39;99815.13;5029292;28;20048;-84
2023/12/03 09:32:15;;;;;;;14.45;7.35;;;;;;;1.85;75.15;99828.00;5016112;28;20053;-81
2023/12/03 09:35:01;;;;;;;8.77;5.30;;;;;;;1.80;75.38;99825.03;5016451;28;20041;-89
2023/12/03 09:37:46;;;;;;;19.63;14.30;;;;;;;1.99;75.72;99834.41;5022691;28;20053;-77
2023/12/03 09:40:37;;;;;;;12.48;7.03;;;;;;;1.99;75.88;99828.38;5016078;28;20053;-76
2023/12/03 09:43:26;;;;;;;10.63;6.75;;;;;;;2.04;73.53;99826.09;5014624;28;20044;-80
2023/12/03 09:46:13;;;;;;;7.75;5.55;;;;;;;1.94;72.08;99835.88;5016037;28;20106;-81
2023/12/03 09:49:04;;;;;;;15.70;9.52;;;;;;;2.32;74.45;99842.38;5014433;28;20056;-78
2023/12/03 09:51:49;;;;;;;21.25;10.82;;;;;;;2.38;72.40;99844.34;5015771;28;20057;-80
2023/12/03 09:54:36;;;;;;;10.75;5.80;;;;;;;2.56;67.77;99841.56;5021436;28;20077;-77
2023/12/03 09:57:29;;;;;;;10.43;6.15;;;;;;;2.42;67.33;99829.94;5000546;28;20502;-80
2023/12/03 10:00:14;;;;;;;6.43;4.63;;;;;;;2.18;67.82;99848.25;5015418;28;20061;-78
2023/12/03 10:03:00;;;;;;;7.85;5.20;;;;;;;2.01;66.80;99832.47;5021006;28;20522;-78
2023/12/03 10:05:47;;;;;;;5.90;3.80;;;;;;;1.89;66.71;99832.91;5015367;28;20053;-78
2023/12/03 10:08:35;;;;;;;6.38;4.07;;;;;;;2.07;66.40;99837.09;5014431;28;20053;-77
2023/12/03 10:11:27;;;;;;;12.77;4.88;;;;;;;1.99;64.02;99820.50;5020819;28;20049;-78
2023/12/03 10:14:15;;;;;;;13.35;6.60;;;;;;;2.26;63.84;99825.47;5020692;28;20045;-80
2023/12/03 10:17:01;;;;;;;15.60;8.20;;;;;;;2.51;63.96;99828.16;5014237;28;20428;-79
2023/12/03 10:19:48;;;;;;;6.90;4.50;;;;;;;2.47;61.80;99825.00;5007114;28;20052;-79
2023/12/03 10:22:36;;;;;;;9.07;5.28;;;;;;;2.60;62.07;99829.78;5015162;28;20053;-78
2023/12/03 10:25:32;;;;;;;3.72;2.97;;;;;;;2.41;61.06;99828.28;5015169;28;20068;-79
2023/12/03 10:28:21;;;;;;;11.05;4.15;;;;;;;2.49;60.97;99827.47;5015028;28;20049;-78
2023/12/03 10:31:15;;;;;;;10.77;5.95;;;;;;;2.65;61.33;99830.09;5027817;28;20056;-78
2023/12/03 10:34:04;;;;;;;7.93;4.00;;;;;;;2.53;61.68;99826.16;5013857;28;20053;-79
2023/12/03 10:36:49;;;;;;;12.52;6.90;;;;;;;2.76;61.70;99839.47;5000298;28;20053;-78
2023/12/03 10:39:37;;;;;;;13.45;7.75;;;;;;;2.82;61.58;99840.59;5015134;28;20052;-78
2023/12/03 10:42:22;;;;;;;12.38;5.65;;;;;;;2.89;60.72;99842.41;5014862;28;20372;-79
2023/12/03 10:45:15;;;;;;;10.07;6.18;;;;;;;2.93;60.50;99842.91;5020399;28;20518;-79
2023/12/03 10:48:01;;;;;;;12.55;7.80;;;;;;;2.92;60.39;99851.78;5014767;28;20044;-78
2023/12/03 10:50:47;;;;;;;5.20;3.42;;;;;;;2.81;59.33;99849.47;5014586;28;20044;-78
2023/12/03 10:53:37;;;;;;;8.45;5.47;;;;;;;2.94;58.77;99839.28;5018901;28;20056;-80
2023/12/03 10:56:23;;;;;;;8.43;4.68;;;;;;;2.87;58.51;99836.50;5012840;28;20061;-77
2023/12/03 10:59:11;;;;;;;6.70;3.42;;;;;;;2.73;58.32;99840.63;5014640;28;20056;-77
2023/12/03 11:01:58;;;;;;;5.43;3.97;;;;;;;2.76;58.63;99847.34;5014376;28;20064;-80
2023/12/03 11:05:05;;;;;;;6.18;4.55;;;;;;;2.76;58.14;99842.09;5013250;28;20407;-78
2023/12/03 11:07:51;;;;;;;10.30;4.60;;;;;;;2.74;58.90;99849.31;5013304;28;20045;-77
2023/12/03 11:10:39;;;;;;;4.97;3.40;;;;;;;2.77;58.66;99848.97;5014364;28;20048;-77
2023/12/03 11:13:27;;;;;;;5.88;3.88;;;;;;;2.76;59.35;99847.34;5013986;28;20109;-77
2023/12/03 11:16:17;;;;;;;6.30;4.03;;;;;;;2.74;57.73;99828.31;5013474;28;20061;-77
2023/12/03 11:19:07;;;;;;;7.00;4.20;;;;;;;2.67;58.36;99840.47;5013288;28;20062;-78
2023/12/03 11:22:03;;;;;;;13.07;6.80;;;;;;;2.80;58.49;99846.03;5013521;28;20069;-78
2023/12/03 11:24:59;;;;;;;21.25;7.97;;;;;;;2.91;58.22;99852.75;5014272;28;20360;-80
2023/12/03 11:27:51;;;;;;;7.47;4.22;;;;;;;2.69;58.05;99854.22;5020642;28;20148;-80
2023/12/03 11:30:40;;;;;;;6.13;4.05;;;;;;;2.52;57.68;99840.28;5012940;28;20056;-80
2023/12/03 11:33:27;;;;;;;7.72;4.80;;;;;;;2.70;57.80;99845.38;5012913;28;20052;-79
2023/12/03 11:36:13;;;;;;;7.93;5.03;;;;;;;2.76;57.18;99855.22;5013160;28;20045;-79
2023/12/03 11:39:06;;;;;;;5.78;3.90;;;;;;;2.71;57.89;99866.19;5020961;28;20400;-78
2023/12/03 11:42:03;;;;;;;6.85;4.18;;;;;;;2.66;57.49;99868.47;5013037;28;20529;-81
2023/12/03 11:44:49;;;;;;;7.43;4.65;;;;;;;2.71;58.28;99866.19;5012875;28;20518;-80
2023/12/03 11:47:36;;;;;;;7.25;4.93;;;;;;;2.73;58.35;99859.00;5019581;28;20056;-79
2023/12/03 11:50:21;;;;;;;7.63;4.32;;;;;;;2.73;56.40;99855.56;5012816;28;20065;-80
2023/12/03 11:53:15;;;;;;;8.27;4.72;;;;;;;2.74;57.11;99873.75;4992322;28;20061;-80
2023/12/03 11:56:02;;;;;;;15.85;7.90;;;;;;;2.75;57.60;99869.31;5002805;28;20069;-80
2023/12/03 11:58:50;;;;;;;14.60;7.40;;;;;;;2.91;56.06;99858.81;5012460;28;20056;-81
2023/12/03 12:01:38;;;;;;;8.02;4.88;;;;;;;2.77;56.08;99867.34;5026557;28;20052;-81
2023/12/03 12:04:24;;;;;;;11.63;7.35;;;;;;;3.10;56.52;99865.53;5012308;28;20049;-79
2023/12/03 12:07:17;;;;;;;10.73;5.57;;;;;;;3.15;57.07;99870.31;5019578;28;20044;-82
2023/12/03 12:10:06;;;;;;;15.25;7.25;;;;;;;3.08;56.93;99869.34;5016447;28;20057;-81
2023/12/03 12:12:54;;;;;;;9.95;5.72;;;;;;;3.08;57.29;99874.59;5023047;28;20053;-80
2023/12/03 12:15:43;;;;;;;6.47;4.28;;;;;;;2.98;57.81;99882.63;5016664;28;20045;-80
2023/12/03 12:18:29;;;;;;;6.05;3.33;;;;;;;2.70;57.58;99877.69;5016870;28;20056;-84
2023/12/03 12:21:16;;;;;;;4.55;3.42;;;;;;;2.52;58.23;99893.56;5023080;28;20052;-79
2023/12/03 12:24:04;;;;;;;5.72;4.05;;;;;;;2.57;58.33;99894.88;5024193;28;20052;-80
2023/12/03 12:26:51;;;;;;;7.80;4.68;;;;;;;2.60;57.71;99879.66;5030273;28;20384;-82
2023/12/03 12:29:37;;;;;;;7.60;3.60;;;;;;;2.42;57.60;99876.34;5023167;28;20049;-79
2023/12/03 12:32:25;;;;;;;3.95;2.97;;;;;;;2.49;57.85;99882.56;5023566;28;20053;-81
2023/12/03 12:35:14;;;;;;;7.03;4.28;;;;;;;2.50;57.11;99873.72;5025475;28;20053;-81
2023/12/03 12:38:01;;;;;;;6.32;3.45;;;;;;;2.54;58.00;99888.16;5031760;28;20049;-79
2023/12/03 12:40:54;;;;;;;10.70;4.88;;;;;;;2.59;57.73;99883.25;5009360;28;20060;-77
2023/12/03 12:43:58;;;;;;;12.15;6.78;;;;;;;2.78;57.45;99875.06;5000559;28;20113;-80
2023/12/03 12:46:55;;;;;;;6.23;4.53;;;;;;;2.57;57.77;99885.22;5017196;28;20072;-78
2023/12/03 12:49:51;;;;;;;7.80;5.28;;;;;;;2.57;58.62;99884.38;5017259;28;20270;-79
2023/12/03 12:52:38;;;;;;;3.10;2.45;;;;;;;2.45;57.70;99876.03;5015823;28;20502;-79
2023/12/03 12:55:29;;;;;;;13.50;7.05;;;;;;;2.70;58.88;99901.31;5016061;28;20045;-78
2023/12/03 12:58:14;;;;;;;9.68;5.38;;;;;;;2.69;58.29;99906.72;5015586;28;20419;-77
2023/12/03 13:01:00;;;;;;;8.52;5.85;;;;;;;2.43;57.87;99899.78;5022317;28;20053;-81
2023/12/03 13:03:46;;;;;;;6.15;4.20;;;;;;;2.39;58.43;99900.28;5016568;28;20052;-81
2023/12/03 13:06:33;;;;;;;8.73;4.47;;;;;;;2.44;57.93;99904.03;5016682;28;20049;-81